Time;durP1;ratioP1;P1;durP2;ratioP2;P2;SDS_P1;SDS_P2;PMS_P1;PMS_P2;Temp;Humidity;BMP_temperature;BMP_pressure;BME280_temperature;BME280_humidity;BME280_pressure;Samples;Min_cycle;Max_cycle;Signal;HPM_P1;HPM_P2
2021/07/09 00:01:42;;;;;;;11.55;6.95;;;18.50;99.90;;;;;;5049996;28;20514;-85
2021/07/09 00:04:08;;;;;;;10.57;6.97;;;18.50;99.90;;;;;;5049602;28;20032;-85
2021/07/09 00:06:35;;;;;;;9.60;7.05;;;18.40;99.90;;;;;;5064657;28;20112;-84
2021/07/09 00:09:03;;;;;;;10.95;7.38;;;18.40;99.90;;;;;;5063795;28;20021;-85
2021/07/09 00:11:29;;;;;;;7.75;6.10;;;18.40;99.90;;;;;;5064133;28;20021;-85
2021/07/09 00:13:54;;;;;;;8.27;6.55;;;18.40;99.90;;;;;;5048347;28;20382;-85
2021/07/09 00:16:20;;;;;;;11.25;6.60;;;18.40;99.90;;;;;;5042155;28;20036;-85
2021/07/09 00:18:46;;;;;;;11.38;7.30;;;18.40;99.90;;;;;;5050946;28;20028;-85
2021/07/09 00:21:12;;;;;;;9.48;6.47;;;18.40;99.90;;;;;;5050621;28;20035;-84
2021/07/09 00:23:39;;;;;;;9.20;6.82;;;18.40;99.90;;;;;;5051797;28;20017;-85
2021/07/09 00:26:05;;;;;;;9.77;6.60;;;18.40;99.90;;;;;;5052977;28;20504;-85
2021/07/09 00:28:31;;;;;;;10.10;6.88;;;18.40;99.90;;;;;;5036244;28;20025;-84
2021/07/09 00:30:57;;;;;;;10.55;6.75;;;18.40;99.90;;;;;;5050208;28;20120;-84
2021/07/09 00:33:23;;;;;;;10.27;7.00;;;18.40;99.90;;;;;;5050978;28;20104;-85
2021/07/09 00:35:49;;;;;;;11.65;7.70;;;18.40;99.90;;;;;;5050751;28;20161;-85
2021/07/09 00:38:15;;;;;;;13.05;8.57;;;18.40;99.90;;;;;;5050514;28;20103;-84
2021/07/09 00:40:40;;;;;;;10.13;7.57;;;18.40;99.90;;;;;;5033404;28;20457;-84
2021/07/09 00:43:06;;;;;;;12.05;7.60;;;18.40;99.90;;;;;;5050851;28;20123;-84
2021/07/09 00:45:32;;;;;;;10.82;7.70;;;18.40;99.90;;;;;;5035679;28;20036;-85
2021/07/09 00:47:57;;;;;;;12.88;8.45;;;18.40;99.90;;;;;;5051234;28;20057;-84
2021/07/09 00:50:23;;;;;;;11.90;8.32;;;18.40;99.90;;;;;;5033481;28;20033;-85
2021/07/09 00:52:49;;;;;;;12.63;8.48;;;18.40;99.90;;;;;;5034173;28;20022;-84
2021/07/09 00:55:16;;;;;;;11.40;7.70;;;18.40;99.90;;;;;;5050614;28;20147;-85
2021/07/09 00:57:46;;;;;;;10.43;7.60;;;18.40;99.90;;;;;;5050506;28;20025;-85
2021/07/09 01:00:13;;;;;;;10.25;7.43;;;18.40;99.90;;;;;;5050264;28;20485;-85
2021/07/09 01:02:39;;;;;;;10.38;6.97;;;18.40;99.90;;;;;;5050491;28;20028;-84
2021/07/09 01:05:07;;;;;;;9.82;7.18;;;18.40;99.90;;;;;;5036290;28;20033;-84
2021/07/09 01:07:34;;;;;;;11.50;7.40;;;18.40;99.90;;;;;;5050645;28;20033;-85
2021/07/09 01:09:59;;;;;;;12.02;8.35;;;18.40;99.90;;;;;;5050395;28;20482;-84
2021/07/09 01:12:25;;;;;;;12.25;8.75;;;18.40;99.90;;;;;;5050370;28;20024;-85
2021/07/09 01:14:51;;;;;;;10.23;7.85;;;18.30;99.90;;;;;;5050778;28;20061;-84
2021/07/09 01:17:17;;;;;;;12.60;7.95;;;18.30;99.90;;;;;;5050126;28;20049;-85
2021/07/09 01:19:43;;;;;;;11.18;7.78;;;18.30;99.90;;;;;;5049766;28;20452;-86
2021/07/09 01:22:09;;;;;;;11.85;7.55;;;18.30;99.90;;;;;;5050932;28;20032;-85
2021/07/09 01:24:38;;;;;;;10.38;7.65;;;18.30;99.90;;;;;;5050411;28;20078;-83
2021/07/09 01:27:06;;;;;;;11.05;6.90;;;18.30;99.90;;;;;;5033373;28;20355;-83
2021/07/09 01:29:32;;;;;;;13.25;7.82;;;18.30;99.90;;;;;;5048252;28;20052;-85
2021/07/09 01:31:58;;;;;;;13.05;8.35;;;18.20;99.90;;;;;;5050030;28;20021;-85
2021/07/09 01:34:24;;;;;;;12.07;7.88;;;18.20;99.90;;;;;;5049465;28;20025;-85
2021/07/09 01:36:50;;;;;;;12.35;7.78;;;18.20;99.90;;;;;;5049687;28;20036;-85
2021/07/09 01:39:17;;;;;;;11.77;7.50;;;18.20;99.90;;;;;;5048928;28;20374;-85
2021/07/09 01:41:43;;;;;;;11.68;8.30;;;18.20;99.90;;;;;;5049361;28;20025;-84
2021/07/09 01:44:09;;;;;;;13.95;8.40;;;18.20;99.90;;;;;;5049395;28;20528;-85
2021/07/09 01:46:35;;;;;;;11.00;7.75;;;18.20;99.90;;;;;;5033995;28;20024;-85
2021/07/09 01:49:04;;;;;;;14.27;8.95;;;18.20;99.90;;;;;;5048542;28;20021;-85
2021/07/09 01:51:31;;;;;;;12.15;8.98;;;18.20;99.90;;;;;;5049226;28;20104;-85
2021/07/09 01:53:57;;;;;;;12.63;8.63;;;18.20;99.90;;;;;;5049200;28;20032;-85
2021/07/09 01:56:22;;;;;;;11.43;8.35;;;18.20;99.90;;;;;;5049124;28;20022;-84
2021/07/09 01:58:48;;;;;;;12.75;7.80;;;18.30;99.90;;;;;;5049061;28;20386;-85
2021/07/09 02:01:13;;;;;;;10.65;7.57;;;18.30;99.90;;;;;;5049273;28;20031;-85
2021/07/09 02:03:39;;;;;;;9.85;7.22;;;18.30;99.90;;;;;;5049330;28;20025;-85
2021/07/09 02:06:05;;;;;;;12.18;7.47;;;18.30;99.90;;;;;;5033455;28;20028;-84
2021/07/09 02:08:30;;;;;;;13.02;7.80;;;18.30;99.90;;;;;;5049227;28;20433;-85
2021/07/09 02:10:56;;;;;;;9.63;7.50;;;18.20;99.90;;;;;;5033275;28;20405;-84
2021/07/09 02:13:22;;;;;;;13.77;8.80;;;18.20;99.90;;;;;;5032212;28;20022;-85
2021/07/09 02:15:48;;;;;;;12.55;7.88;;;18.20;99.90;;;;;;5049001;28;20393;-85
2021/07/09 02:18:15;;;;;;;12.73;8.52;;;18.30;99.90;;;;;;5048829;28;20044;-85
2021/07/09 02:20:41;;;;;;;10.38;7.28;;;18.20;99.90;;;;;;5047931;28;20064;-85
2021/07/09 02:23:09;;;;;;;11.15;7.38;;;18.30;99.90;;;;;;5047560;28;20508;-85
2021/07/09 02:25:36;;;;;;;10.68;7.82;;;18.20;99.90;;;;;;5032847;28;20021;-85
2021/07/09 02:28:02;;;;;;;10.80;7.85;;;18.30;99.90;;;;;;5048886;28;20212;-85
2021/07/09 02:30:29;;;;;;;10.65;7.25;;;18.20;99.90;;;;;;5048182;28;20027;-85
2021/07/09 02:32:55;;;;;;;12.15;8.18;;;18.30;99.90;;;;;;5048360;28;20025;-85
2021/07/09 02:35:24;;;;;;;12.50;7.90;;;18.30;99.90;;;;;;5048587;28;20044;-85
2021/07/09 02:37:50;;;;;;;;;;;18.20;99.90;;;;;;5033932;28;20060;-84
2021/07/09 02:40:20;;;;;;;12.13;7.78;;;18.20;99.90;;;;;;5031058;28;19909;-85
2021/07/09 02:42:48;;;;;;;9.95;7.45;;;18.20;99.90;;;;;;5048415;28;20029;-84
2021/07/09 02:45:14;;;;;;;9.82;7.63;;;18.20;99.90;;;;;;5033129;28;20155;-84
2021/07/09 02:47:41;;;;;;;11.88;8.05;;;18.20;99.90;;;;;;5033070;28;20030;-85
2021/07/09 02:50:09;;;;;;;14.23;8.05;;;18.20;99.90;;;;;;5047607;28;20021;-85
2021/07/09 02:52:35;;;;;;;12.63;9.02;;;18.20;99.90;;;;;;5033175;28;20028;-85
2021/07/09 02:55:01;;;;;;;11.18;9.10;;;18.20;99.90;;;;;;5033271;28;20489;-85
2021/07/09 02:57:27;;;;;;;10.25;7.43;;;18.20;99.90;;;;;;5048153;28;20087;-85
2021/07/09 02:59:53;;;;;;;10.68;8.20;;;18.20;99.90;;;;;;5047810;28;20478;-85
2021/07/09 03:02:18;;;;;;;12.50;8.13;;;18.20;99.90;;;;;;5048081;28;20033;-85
2021/07/09 03:04:44;;;;;;;13.50;8.00;;;18.20;99.90;;;;;;5031651;28;20465;-85
2021/07/09 03:07:09;;;;;;;11.70;8.65;;;18.20;99.90;;;;;;5031685;28;20473;-84
2021/07/09 03:09:35;;;;;;;10.82;7.60;;;18.20;99.90;;;;;;5047905;28;20029;-85
2021/07/09 03:12:01;;;;;;;12.23;7.82;;;18.20;99.90;;;;;;5032806;28;20420;-85
2021/07/09 03:14:27;;;;;;;10.95;7.68;;;18.20;99.90;;;;;;5048037;28;20390;-85
2021/07/09 03:16:52;;;;;;;11.38;7.85;;;18.20;99.90;;;;;;5031405;28;20036;-85
2021/07/09 03:19:19;;;;;;;14.23;6.78;;;18.20;99.90;;;;;;5047437;28;20091;-85
2021/07/09 03:21:45;;;;;;;9.60;7.00;;;18.20;99.90;;;;;;5048181;28;20061;-85
2021/07/09 03:24:10;;;;;;;9.77;6.97;;;18.20;99.90;;;;;;5033002;28;20025;-84
2021/07/09 03:26:36;;;;;;;12.27;7.82;;;18.30;99.90;;;;;;5048387;28;20112;-85
2021/07/09 03:29:03;;;;;;;11.13;6.55;;;18.30;99.90;;;;;;5032177;28;20105;-85
2021/07/09 03:31:30;;;;;;;12.45;6.70;;;18.30;99.90;;;;;;5048424;28;20128;-85
2021/07/09 03:33:56;;;;;;;9.07;7.22;;;18.30;99.90;;;;;;5032875;28;20367;-85
2021/07/09 03:36:22;;;;;;;9.90;6.60;;;18.30;99.90;;;;;;5032454;28;20028;-85
2021/07/09 03:38:53;;;;;;;11.40;7.65;;;18.30;99.90;;;;;;5047631;28;20025;-85
2021/07/09 03:41:19;;;;;;;13.13;7.05;;;18.20;99.90;;;;;;5031236;28;20072;-84
2021/07/09 03:43:45;;;;;;;10.70;7.43;;;18.20;99.90;;;;;;5047727;28;20073;-84
2021/07/09 03:46:11;;;;;;;10.55;7.05;;;18.20;99.90;;;;;;5047942;28;20026;-85
2021/07/09 03:48:37;;;;;;;11.50;6.97;;;18.20;99.90;;;;;;5031318;28;20057;-85
2021/07/09 03:51:04;;;;;;;10.10;7.00;;;18.20;99.90;;;;;;5047550;28;20060;-85
2021/07/09 03:53:30;;;;;;;10.52;7.10;;;18.20;99.90;;;;;;5051781;28;20083;-85
2021/07/09 03:55:55;;;;;;;9.93;6.53;;;18.20;99.90;;;;;;5034900;28;20029;-85
2021/07/09 03:58:21;;;;;;;12.30;7.75;;;18.20;99.90;;;;;;5051359;28;20030;-85
2021/07/09 04:00:46;;;;;;;7.65;5.90;;;18.20;99.90;;;;;;5050726;28;20367;-84
2021/07/09 04:03:12;;;;;;;10.38;6.28;;;18.20;99.90;;;;;;5051720;28;20375;-85
2021/07/09 04:05:38;;;;;;;11.95;7.20;;;18.20;99.90;;;;;;5035905;28;20506;-84
2021/07/09 04:08:04;;;;;;;10.02;7.25;;;18.20;99.90;;;;;;5051395;28;20390;-85
2021/07/09 04:10:30;;;;;;;10.27;6.38;;;18.20;99.90;;;;;;5050651;28;20108;-85
2021/07/09 04:12:55;;;;;;;11.38;7.30;;;18.20;99.90;;;;;;5051137;28;20057;-85
2021/07/09 04:15:21;;;;;;;9.93;7.30;;;18.20;99.90;;;;;;5035806;28;20478;-83
2021/07/09 04:17:47;;;;;;;11.32;7.20;;;18.20;99.90;;;;;;5051470;28;20029;-85
2021/07/09 04:20:13;;;;;;;9.85;6.93;;;18.30;99.90;;;;;;5050369;28;20033;-85
2021/07/09 04:22:45;;;;;;;12.15;8.18;;;18.30;99.90;;;;;;5050836;28;20294;-85
2021/07/09 04:25:12;;;;;;;10.30;7.75;;;18.30;99.90;;;;;;5050893;28;20116;-86
2021/07/09 04:27:39;;;;;;;14.68;9.85;;;18.30;99.90;;;;;;5051224;28;20025;-85
2021/07/09 04:30:06;;;;;;;18.42;13.85;;;18.30;99.90;;;;;;5034334;28;20036;-84
2021/07/09 04:32:32;;;;;;;23.85;18.25;;;18.30;99.90;;;;;;5036086;28;20025;-82
2021/07/09 04:34:58;;;;;;;26.08;17.23;;;18.40;99.90;;;;;;5050865;28;20139;-85
2021/07/09 04:37:23;;;;;;;26.50;19.20;;;18.40;99.90;;;;;;5034714;28;20022;-85
2021/07/09 04:39:49;;;;;;;23.65;19.02;;;18.40;99.90;;;;;;5050040;28;20033;-84
2021/07/09 04:42:14;;;;;;;24.65;18.38;;;18.40;99.90;;;;;;5050832;28;20108;-84
2021/07/09 04:44:40;;;;;;;31.85;19.10;;;18.50;99.90;;;;;;5051042;28;20094;-84
2021/07/09 04:47:06;;;;;;;28.85;19.38;;;18.40;99.90;;;;;;5050883;28;20029;-85
2021/07/09 04:49:32;;;;;;;24.80;18.30;;;18.40;99.90;;;;;;5050140;28;20034;-85
2021/07/09 04:51:58;;;;;;;24.67;18.02;;;18.50;99.90;;;;;;5050728;28;20109;-85
2021/07/09 04:54:23;;;;;;;26.23;18.15;;;18.50;99.90;;;;;;5035773;28;20049;-85
2021/07/09 04:56:49;;;;;;;26.38;19.40;;;18.50;99.90;;;;;;5035499;28;20036;-85
2021/07/09 04:59:15;;;;;;;29.60;20.42;;;18.50;99.90;;;;;;5050440;28;20036;-85
2021/07/09 05:01:41;;;;;;;24.25;17.85;;;18.50;99.90;;;;;;5036838;28;20022;-84
2021/07/09 05:04:07;;;;;;;27.50;20.13;;;18.50;99.90;;;;;;5037259;28;20044;-84
2021/07/09 05:06:36;;;;;;;29.70;18.42;;;18.50;99.90;;;;;;5037723;28;20064;-84
2021/07/09 05:09:03;;;;;;;25.70;18.63;;;18.50;99.90;;;;;;5035976;28;20021;-84
2021/07/09 05:11:29;;;;;;;27.73;20.25;;;18.50;99.90;;;;;;5035309;28;20036;-84
2021/07/09 05:13:55;;;;;;;26.88;20.25;;;18.60;99.90;;;;;;5035059;28;20021;-84
2021/07/09 05:16:21;;;;;;;32.03;22.85;;;18.60;99.90;;;;;;5050138;28;20518;-85
2021/07/09 05:18:46;;;;;;;30.95;20.67;;;18.60;99.90;;;;;;5034054;28;20026;-85
2021/07/09 05:21:13;;;;;;;31.13;22.15;;;18.60;99.90;;;;;;5090538;22;20057;-87
2021/07/09 05:23:40;;;;;;;27.25;20.27;;;18.60;99.90;;;;;;5019152;28;20032;-87
2021/07/09 05:26:05;;;;;;;25.42;18.02;;;18.70;99.90;;;;;;5035781;28;20040;-87
2021/07/09 05:28:31;;;;;;;28.55;20.98;;;18.70;99.90;;;;;;5052152;28;20072;-87
2021/07/09 05:30:57;;;;;;;28.92;21.05;;;18.70;99.90;;;;;;5051153;28;20028;-87
2021/07/09 05:33:22;;;;;;;32.45;21.98;;;18.70;99.90;;;;;;5053674;28;20021;-87
2021/07/09 05:35:48;;;;;;;31.90;22.20;;;18.70;99.90;;;;;;5053560;28;20416;-87
2021/07/09 05:38:14;;;;;;;34.30;24.00;;;18.70;99.90;;;;;;5052047;28;20074;-87
2021/07/09 05:40:40;;;;;;;32.08;22.63;;;18.70;99.90;;;;;;5052660;28;20092;-87
2021/07/09 05:43:06;;;;;;;31.73;21.45;;;18.70;99.90;;;;;;5052245;28;20032;-87
2021/07/09 05:45:32;;;;;;;33.95;22.77;;;18.80;99.90;;;;;;5053092;28;20024;-87
2021/07/09 05:47:57;;;;;;;35.70;24.70;;;18.80;99.90;;;;;;5051736;28;20082;-87
2021/07/09 05:50:25;;;;;;;38.45;28.30;;;18.80;99.90;;;;;;5051024;28;20516;-87
2021/07/09 05:52:51;;;;;;;42.22;27.98;;;18.90;99.90;;;;;;5052904;28;20048;-87
2021/07/09 05:55:17;;;;;;;39.33;26.75;;;18.90;99.90;;;;;;5051586;28;20025;-87
2021/07/09 05:57:43;;;;;;;33.15;24.17;;;18.90;99.90;;;;;;5052762;28;20044;-87
2021/07/09 06:00:10;;;;;;;42.65;29.08;;;18.90;99.90;;;;;;5050990;28;20370;-87
2021/07/09 06:02:36;;;;;;;34.20;23.77;;;18.90;99.90;;;;;;5051804;28;20028;-88
2021/07/09 06:05:03;;;;;;;32.28;24.02;;;18.90;99.90;;;;;;5051336;28;20115;-87
2021/07/09 06:07:29;;;;;;;38.83;27.02;;;18.90;99.90;;;;;;5052582;28;20427;-88
2021/07/09 06:09:54;;;;;;;34.55;24.38;;;18.90;99.90;;;;;;5050744;28;20033;-87
2021/07/09 06:12:20;;;;;;;37.78;24.55;;;18.90;99.90;;;;;;5051312;28;20067;-87
2021/07/09 06:14:45;;;;;;;33.22;22.85;;;18.90;99.90;;;;;;5050661;28;20067;-87
2021/07/09 06:17:11;;;;;;;32.35;23.42;;;18.90;99.90;;;;;;5051316;28;20024;-87
2021/07/09 06:19:37;;;;;;;31.42;23.58;;;18.90;99.90;;;;;;5051616;28;20106;-87
2021/07/09 06:22:02;;;;;;;34.33;23.17;;;18.90;99.90;;;;;;5052233;28;20035;-87
2021/07/09 06:24:28;;;;;;;31.52;22.58;;;19.00;99.90;;;;;;5051129;28;20036;-87
2021/07/09 06:26:54;;;;;;;32.97;20.83;;;19.00;99.90;;;;;;5052444;28;20028;-87
2021/07/09 06:29:19;;;;;;;34.85;21.48;;;19.10;99.90;;;;;;5050468;28;20397;-87
2021/07/09 06:31:45;;;;;;;30.23;20.75;;;19.10;99.90;;;;;;5051372;28;20025;-87
2021/07/09 06:34:11;;;;;;;34.47;22.00;;;19.10;99.90;;;;;;5050980;28;20034;-87
2021/07/09 06:36:36;;;;;;;36.40;21.55;;;19.20;99.90;;;;;;5050790;28;20095;-88
2021/07/09 06:39:03;;;;;;;28.95;18.60;;;19.20;99.90;;;;;;5050414;28;20428;-88
2021/07/09 06:41:29;;;;;;;25.67;17.48;;;19.20;99.90;;;;;;5050706;28;20021;-88
2021/07/09 06:43:57;;;;;;;26.80;17.60;;;19.20;99.90;;;;;;5052125;28;20388;-88
2021/07/09 06:46:23;;;;;;;23.65;15.85;;;19.20;99.90;;;;;;5050893;28;20036;-88
2021/07/09 06:48:49;;;;;;;23.67;15.60;;;19.20;99.90;;;;;;5050508;28;20037;-87
2021/07/09 06:51:14;;;;;;;24.80;16.77;;;19.20;99.90;;;;;;5050260;28;20082;-88
2021/07/09 06:53:40;;;;;;;24.85;16.92;;;19.30;99.90;;;;;;5050914;28;20028;-88
2021/07/09 06:56:05;;;;;;;24.10;18.30;;;19.30;99.90;;;;;;5050826;28;20056;-88
2021/07/09 06:58:31;;;;;;;25.45;16.67;;;19.30;99.90;;;;;;5050948;28;20025;-88
2021/07/09 07:00:57;;;;;;;35.30;21.80;;;19.30;99.90;;;;;;5050323;28;20116;-88
2021/07/09 07:03:23;;;;;;;31.70;20.48;;;19.30;99.90;;;;;;5050631;28;20021;-88
2021/07/09 07:05:48;;;;;;;30.05;19.58;;;19.30;99.90;;;;;;5051877;28;20021;-88
2021/07/09 07:08:23;;;;;;;28.55;19.45;;;19.30;99.90;;;;;;5050806;28;20029;-87
2021/07/09 07:10:51;;;;;;;27.42;18.40;;;19.30;99.90;;;;;;5051658;28;20489;-87
2021/07/09 07:13:18;;;;;;;26.73;17.10;;;19.40;99.90;;;;;;5054064;28;20021;-87
2021/07/09 07:15:44;;;;;;;31.35;20.88;;;19.40;99.90;;;;;;5053686;28;20028;-88
2021/07/09 07:18:10;;;;;;;25.30;17.52;;;19.40;99.90;;;;;;5054784;28;20075;-87
2021/07/09 07:20:41;;;;;;;26.77;17.45;;;19.40;99.90;;;;;;5050115;28;20048;-87
2021/07/09 07:23:08;;;;;;;28.80;17.80;;;19.50;99.90;;;;;;5051831;28;20021;-88
2021/07/09 07:25:34;;;;;;;30.83;19.20;;;19.50;99.90;;;;;;5050414;28;20024;-88
2021/07/09 07:28:00;;;;;;;30.00;18.77;;;19.60;99.90;;;;;;5054166;28;20098;-87
2021/07/09 07:30:27;;;;;;;24.40;16.02;;;19.60;99.90;;;;;;5054883;28;20078;-88
2021/07/09 07:32:53;;;;;;;23.38;15.18;;;19.60;99.90;;;;;;5054320;28;20024;-88
2021/07/09 07:35:19;;;;;;;23.85;15.85;;;19.70;99.90;;;;;;5055420;28;20162;-88
2021/07/09 07:37:44;;;;;;;30.00;19.88;;;19.70;99.90;;;;;;5054251;28;20546;-87
2021/07/09 07:40:10;;;;;;;28.52;17.95;;;19.70;99.90;;;;;;5054852;28;20029;-88
2021/07/09 07:42:36;;;;;;;26.77;18.20;;;19.70;99.90;;;;;;5054053;28;20029;-88
2021/07/09 07:45:03;;;;;;;28.38;20.08;;;19.70;99.90;;;;;;5054023;28;20040;-88
2021/07/09 07:47:30;;;;;;;27.02;19.33;;;19.80;99.90;;;;;;5054278;28;20113;-88
2021/07/09 07:49:55;;;;;;;27.02;19.20;;;19.80;99.90;;;;;;5053543;28;20032;-88
2021/07/09 07:52:21;;;;;;;27.42;18.92;;;19.80;99.90;;;;;;5055338;28;20033;-87
2021/07/09 07:54:46;;;;;;;24.75;16.08;;;19.80;99.90;;;;;;5054645;28;20036;-88
2021/07/09 07:57:12;;;;;;;25.33;15.93;;;19.80;99.90;;;;;;5055318;28;20141;-88
2021/07/09 07:59:38;;;;;;;25.30;17.48;;;19.80;99.90;;;;;;5053629;28;20032;-87
2021/07/09 08:02:03;;;;;;;20.80;14.15;;;19.80;99.90;;;;;;5053978;28;20099;-87
2021/07/09 08:04:29;;;;;;;23.73;15.23;;;19.70;99.90;;;;;;5053635;28;20067;-88
2021/07/09 08:06:55;;;;;;;25.25;14.55;;;19.80;99.90;;;;;;5053660;28;20032;-88
2021/07/09 08:09:20;;;;;;;24.92;15.73;;;19.80;99.90;;;;;;5053130;28;20025;-88
2021/07/09 08:11:46;;;;;;;21.45;13.85;;;19.90;99.90;;;;;;5053732;28;20052;-88
2021/07/09 08:14:12;;;;;;;22.92;14.02;;;19.90;99.90;;;;;;5053431;28;20021;-87
2021/07/09 08:16:37;;;;;;;21.23;13.55;;;20.00;99.60;;;;;;5053459;28;20055;-88
2021/07/09 08:19:03;;;;;;;20.65;13.27;;;20.00;99.40;;;;;;5054182;28;20017;-88
2021/07/09 08:21:29;;;;;;;20.23;12.48;;;20.00;98.80;;;;;;5054794;28;20425;-88
2021/07/09 08:23:54;;;;;;;14.32;9.73;;;20.10;98.50;;;;;;5054767;28;20017;-88
2021/07/09 08:26:21;;;;;;;14.30;9.25;;;20.10;98.70;;;;;;5053693;28;20035;-88
2021/07/09 08:28:47;;;;;;;21.25;10.35;;;20.10;98.90;;;;;;5053060;28;20029;-87
2021/07/09 08:31:12;;;;;;;13.82;8.50;;;20.20;97.80;;;;;;5052960;28;20490;-87
2021/07/09 08:33:38;;;;;;;14.52;9.68;;;20.30;98.10;;;;;;5053261;28;20573;-88
2021/07/09 08:36:04;;;;;;;12.27;7.70;;;20.30;97.90;;;;;;5054564;28;20025;-88
2021/07/09 08:38:31;;;;;;;9.90;7.38;;;20.40;97.40;;;;;;5053987;28;20025;-91
2021/07/09 08:40:57;;;;;;;11.20;7.68;;;20.40;97.50;;;;;;5036020;28;20028;-85
2021/07/09 08:43:22;;;;;;;16.77;10.07;;;20.40;97.80;;;;;;5054709;28;20100;-90
2021/07/09 08:45:48;;;;;;;20.70;11.48;;;20.40;96.90;;;;;;5053344;28;20033;-91
2021/07/09 08:48:15;;;;;;;16.17;9.85;;;20.40;96.40;;;;;;5053293;28;20116;-85
2021/07/09 08:50:41;;;;;;;14.63;9.10;;;20.40;96.00;;;;;;5053823;28;20474;-86
2021/07/09 08:53:06;;;;;;;12.38;8.45;;;20.40;96.20;;;;;;5052795;28;20040;-86
2021/07/09 08:55:32;;;;;;;12.18;7.63;;;20.40;96.50;;;;;;5054317;28;20044;-85
2021/07/09 08:57:58;;;;;;;13.25;7.63;;;20.40;96.70;;;;;;5054258;28;20025;-85
2021/07/09 09:00:26;;;;;;;14.50;9.50;;;20.40;96.60;;;;;;5053019;28;20028;-86
2021/07/09 09:02:53;;;;;;;13.00;7.43;;;20.50;96.30;;;;;;5052763;28;20067;-84
2021/07/09 09:05:24;;;;;;;14.68;9.18;;;20.50;96.40;;;;;;5052742;28;20029;-84
2021/07/09 09:08:01;;;;;;;14.52;9.15;;;20.50;95.50;;;;;;5054054;28;20067;-85
2021/07/09 09:10:35;;;;;;;17.17;9.68;;;20.50;94.90;;;;;;5052839;28;20108;-85
2021/07/09 09:13:06;;;;;;;14.35;9.25;;;20.60;94.60;;;;;;5052855;28;20163;-86
2021/07/09 09:15:31;;;;;;;14.02;7.45;;;20.60;94.50;;;;;;5052767;28;20032;-86
2021/07/09 09:17:57;;;;;;;14.98;8.52;;;20.60;94.20;;;;;;5052753;28;20017;-87
2021/07/09 09:20:27;;;;;;;12.80;6.82;;;20.60;94.00;;;;;;5053436;28;20032;-86
2021/07/09 09:22:54;;;;;;;9.70;6.10;;;20.60;93.70;;;;;;5052648;28;20017;-86
2021/07/09 09:25:23;;;;;;;8.93;5.53;;;20.70;93.50;;;;;;5052757;28;20025;-87
2021/07/09 09:28:11;;;;;;;11.32;6.68;;;20.70;93.80;;;;;;5052767;28;20040;-86
2021/07/09 09:30:39;;;;;;;11.13;7.30;;;20.80;94.30;;;;;;5051713;28;20108;-85
2021/07/09 09:33:07;;;;;;;13.55;7.95;;;20.80;94.10;;;;;;5051767;28;20056;-89
2021/07/09 09:35:54;;;;;;;9.45;6.72;;;21.00;93.70;;;;;;5051563;28;20512;-86
2021/07/09 09:38:28;;;;;;;12.13;8.20;;;21.00;94.40;;;;;;5049955;28;20048;-93
2021/07/09 09:40:54;;;;;;;8.63;6.07;;;21.10;93.80;;;;;;5052899;28;20428;-92
2021/07/09 09:43:32;;;;;;;6.38;4.70;;;21.10;92.30;;;;;;5044459;28;20036;-92
2021/07/09 09:45:57;;;;;;;6.05;4.35;;;21.10;91.40;;;;;;5033828;28;20026;-84
2021/07/09 09:48:33;;;;;;;7.10;4.30;;;21.10;90.80;;;;;;5033347;28;20026;-84
2021/07/09 09:50:59;;;;;;;10.77;4.85;;;21.20;90.40;;;;;;5031031;28;20056;-84
2021/07/09 09:53:35;;;;;;;8.75;4.63;;;21.20;90.90;;;;;;5032252;28;20065;-83
2021/07/09 09:56:08;;;;;;;9.90;5.40;;;21.30;91.60;;;;;;5032217;28;20117;-83
2021/07/09 09:58:34;;;;;;;8.32;4.90;;;21.30;91.70;;;;;;5031896;28;20022;-84
2021/07/09 10:01:00;;;;;;;8.25;5.72;;;21.30;92.10;;;;;;5032576;28;20030;-84
2021/07/09 10:03:26;;;;;;;8.05;5.65;;;21.30;91.90;;;;;;5032975;28;20540;-84
2021/07/09 10:05:53;;;;;;;9.38;6.28;;;21.40;91.70;;;;;;5031782;28;20431;-84
2021/07/09 10:08:21;;;;;;;16.63;7.07;;;21.40;92.00;;;;;;5033169;28;20033;-83
2021/07/09 10:10:52;;;;;;;11.15;6.85;;;21.30;92.10;;;;;;5031971;28;20097;-83
2021/07/09 10:13:22;;;;;;;9.50;5.93;;;21.30;92.10;;;;;;5033084;28;20033;-84
2021/07/09 10:15:48;;;;;;;8.88;6.28;;;21.40;91.20;;;;;;5033224;28;20080;-84
2021/07/09 10:18:15;;;;;;;8.70;4.70;;;21.50;90.90;;;;;;5031940;28;20017;-83
2021/07/09 10:20:43;;;;;;;10.77;5.60;;;21.50;90.90;;;;;;5032646;28;20033;-83
2021/07/09 10:23:10;;;;;;;9.07;4.70;;;21.50;91.10;;;;;;5033324;28;20136;-84
2021/07/09 10:25:37;;;;;;;8.50;5.32;;;21.50;91.40;;;;;;5033705;28;20088;-84
2021/07/09 10:28:07;;;;;;;8.90;5.03;;;21.50;91.70;;;;;;5033025;28;20026;-84
2021/07/09 10:30:39;;;;;;;9.70;6.05;;;21.40;91.70;;;;;;5032314;28;20096;-84
2021/07/09 10:33:34;;;;;;;8.23;5.57;;;21.40;91.90;;;;;;5031484;28;20030;-88
2021/07/09 10:36:24;;;;;;;9.88;5.90;;;21.50;92.20;;;;;;5032458;28;20029;-86
2021/07/09 10:38:53;;;;;;;10.70;5.40;;;21.50;91.80;;;;;;5032224;28;20056;-86
2021/07/09 10:41:19;;;;;;;;;;;21.60;90.50;;;;;;5033062;28;20041;-86
2021/07/09 10:44:14;;;;;;;7.72;4.72;;;21.70;90.50;;;;;;5039377;28;19912;-86
2021/07/09 10:46:40;;;;;;;6.00;4.53;;;21.60;91.20;;;;;;5045111;28;20029;-85
2021/07/09 10:49:06;;;;;;;6.50;3.85;;;21.70;91.50;;;;;;5047333;28;20042;-86
2021/07/09 10:52:01;;;;;;;7.45;4.63;;;21.60;91.60;;;;;;5044292;28;20040;-87
2021/07/09 10:54:28;;;;;;;8.82;4.07;;;21.70;90.60;;;;;;5034567;28;20430;-87
2021/07/09 10:57:20;;;;;;;6.57;3.50;;;21.70;90.50;;;;;;5033125;28;20097;-88
2021/07/09 11:00:26;;;;;;;5.10;3.20;;;21.60;89.40;;;;;;5030800;28;20100;-84
2021/07/09 11:03:01;;;;;;;6.18;3.67;;;21.60;88.10;;;;;;5010509;28;20098;-85
2021/07/09 11:05:50;;;;;;;5.18;3.40;;;21.60;88.00;;;;;;4994254;28;20026;-85
2021/07/09 11:08:31;;;;;;;4.43;2.90;;;21.60;88.00;;;;;;5043216;28;20037;-85
2021/07/09 11:11:09;;;;;;;4.75;3.15;;;21.60;89.70;;;;;;5043074;28;20037;-83
2021/07/09 11:13:41;;;;;;;5.40;3.15;;;21.60;88.10;;;;;;5040408;28;20021;-83
2021/07/09 11:16:18;;;;;;;5.90;3.20;;;21.70;85.30;;;;;;5049920;28;20397;-88
2021/07/09 11:18:55;;;;;;;4.97;2.87;;;21.70;85.40;;;;;;5051106;28;20034;-86
2021/07/09 11:21:30;;;;;;;5.50;3.25;;;21.70;85.60;;;;;;5049816;28;20514;-86
2021/07/09 11:24:10;;;;;;;6.97;3.20;;;21.70;85.30;;;;;;5050817;28;20032;-88
2021/07/09 11:26:40;;;;;;;5.30;3.00;;;21.80;85.60;;;;;;5052008;28;20025;-88
2021/07/09 11:29:27;;;;;;;4.32;2.92;;;21.80;85.00;;;;;;5044890;28;20026;-89
2021/07/09 11:32:01;;;;;;;3.53;2.50;;;21.90;84.00;;;;;;5031195;28;20072;-88
2021/07/09 11:34:30;;;;;;;3.45;2.40;;;22.00;84.40;;;;;;5032777;28;20029;-86
2021/07/09 11:37:02;;;;;;;4.28;2.42;;;22.00;84.00;;;;;;5030901;28;20033;-86
2021/07/09 11:39:30;;;;;;;5.95;2.80;;;22.10;84.30;;;;;;5030612;28;20052;-86
2021/07/09 11:42:07;;;;;;;5.45;2.78;;;22.20;82.80;;;;;;5033338;28;20032;-84
2021/07/09 11:44:40;;;;;;;5.88;2.95;;;22.20;83.70;;;;;;5036256;28;20417;-84
2021/07/09 11:47:10;;;;;;;3.72;2.40;;;22.30;84.10;;;;;;5036480;28;20382;-84
2021/07/09 11:49:41;;;;;;;5.07;2.60;;;22.40;83.00;;;;;;5035651;28;20024;-84
2021/07/09 11:52:10;;;;;;;4.72;2.60;;;22.40;82.00;;;;;;5034687;28;20072;-84
2021/07/09 11:54:42;;;;;;;4.10;2.30;;;22.40;81.70;;;;;;5033198;28;22335;-84
2021/07/09 11:57:14;;;;;;;5.22;2.63;;;22.30;82.30;;;;;;5025785;28;20026;-85
2021/07/09 11:59:42;;;;;;;3.35;2.75;;;22.30;83.20;;;;;;5028964;28;20021;-84
2021/07/09 12:02:14;;;;;;;4.47;2.88;;;22.30;83.50;;;;;;5026582;28;20028;-90
2021/07/09 12:04:41;;;;;;;4.40;2.78;;;22.30;84.50;;;;;;5028567;28;20489;-87
2021/07/09 12:07:20;;;;;;;4.80;2.97;;;22.30;82.40;;;;;;5021930;28;20112;-88
2021/07/09 12:09:48;;;;;;;5.00;2.90;;;22.40;81.70;;;;;;5028473;28;20037;-87
2021/07/09 12:12:14;;;;;;;4.80;3.30;;;22.40;82.20;;;;;;5029101;28;20067;-88
2021/07/09 12:14:54;;;;;;;6.78;3.50;;;22.40;82.40;;;;;;5031942;28;20038;-87
2021/07/09 12:17:21;;;;;;;4.57;3.17;;;22.50;82.60;;;;;;5032695;28;20022;-88
2021/07/09 12:19:56;;;;;;;5.55;3.00;;;22.60;81.70;;;;;;5031886;28;20493;-87
2021/07/09 12:22:31;;;;;;;6.05;3.22;;;22.70;81.70;;;;;;5032111;28;20029;-87
2021/07/09 12:25:01;;;;;;;5.18;2.83;;;22.80;81.50;;;;;;5036245;28;20033;-88
2021/07/09 12:27:29;;;;;;;5.43;3.28;;;22.90;81.10;;;;;;5034176;28;20133;-87
2021/07/09 12:29:54;;;;;;;5.37;3.27;;;23.00;80.20;;;;;;5031700;28;20025;-87
2021/07/09 12:32:20;;;;;;;5.82;3.63;;;23.20;81.70;;;;;;5032250;28;20629;-87
2021/07/09 12:34:46;;;;;;;4.82;3.47;;;23.20;81.10;;;;;;5032959;28;20025;-88
2021/07/09 12:37:12;;;;;;;5.75;3.40;;;23.10;81.70;;;;;;5031419;28;20030;-87
2021/07/09 12:39:38;;;;;;;4.82;3.38;;;23.10;82.40;;;;;;5030945;28;20021;-87
2021/07/09 12:42:16;;;;;;;8.98;3.80;;;23.00;82.70;;;;;;5032920;28;20025;-88